createdAt,value
2018-12-23T00:00:26.404Z,0.00
2018-12-23T00:01:26.362Z,0.00
2018-12-23T00:02:26.327Z,0.00
2018-12-23T00:03:26.289Z,0.00
2018-12-23T00:04:26.224Z,0.00
2018-12-23T00:05:26.185Z,0.00
2018-12-23T00:06:26.149Z,0.00
2018-12-23T00:07:26.114Z,0.00
2018-12-23T00:08:26.067Z,0.00
2018-12-23T00:09:26.038Z,0.00
2018-12-23T00:10:26.027Z,0.00
2018-12-23T00:11:25.967Z,0.00
2018-12-23T00:12:25.906Z,0.00
2018-12-23T00:13:25.848Z,0.00
2018-12-23T00:14:25.844Z,0.00
2018-12-23T00:15:25.777Z,0.00
2018-12-23T00:16:25.742Z,0.00
2018-12-23T00:17:25.707Z,0.00
2018-12-23T00:18:25.654Z,0.00
2018-12-23T00:19:25.607Z,0.00
2018-12-23T00:20:25.598Z,0.00
2018-12-23T00:21:25.531Z,0.00
2018-12-23T00:22:25.489Z,0.00
2018-12-23T00:23:25.448Z,0.00
2018-12-23T00:24:25.424Z,0.00
2018-12-23T00:25:25.374Z,0.00
2018-12-23T00:26:25.319Z,0.00
2018-12-23T00:27:25.276Z,0.00
2018-12-23T00:28:25.274Z,0.00
2018-12-23T00:29:25.217Z,0.00
2018-12-23T00:30:25.179Z,0.00
2018-12-23T00:31:25.145Z,0.00
2018-12-23T00:32:25.102Z,0.00
2018-12-23T00:33:25.585Z,0.00
2018-12-23T00:34:24.997Z,0.00
2018-12-23T00:35:24.971Z,0.00
2018-12-23T00:36:24.906Z,0.00
2018-12-23T00:37:24.896Z,0.00
2018-12-23T00:38:24.837Z,0.00
2018-12-23T00:39:24.842Z,0.00
2018-12-23T00:40:24.758Z,0.00
2018-12-23T00:41:24.743Z,0.00
2018-12-23T00:42:24.682Z,0.00
2018-12-23T00:43:24.667Z,0.00
2018-12-23T00:44:24.634Z,0.00
2018-12-23T00:45:24.544Z,0.00
2018-12-23T00:46:24.516Z,0.00
2018-12-23T00:47:24.462Z,0.00
2018-12-23T00:48:24.428Z,0.00
2018-12-23T00:49:24.372Z,0.00
2018-12-23T00:50:24.357Z,0.00
2018-12-23T00:51:24.304Z,0.00
2018-12-23T00:52:24.287Z,0.00
2018-12-23T00:53:24.212Z,0.00
2018-12-23T00:54:24.185Z,0.00
2018-12-23T00:55:24.138Z,0.00
2018-12-23T00:56:24.104Z,0.00
2018-12-23T00:57:24.077Z,0.00
2018-12-23T00:58:24.046Z,0.00
2018-12-23T00:59:23.978Z,0.00
2018-12-23T01:00:23.943Z,0.00
2018-12-23T01:01:23.928Z,0.00
2018-12-23T01:02:23.878Z,0.00
2018-12-23T01:03:23.837Z,0.00
2018-12-23T01:04:23.788Z,0.00
2018-12-23T01:05:28.733Z,0.00
2018-12-23T01:06:23.710Z,0.00
2018-12-23T01:07:23.647Z,0.00
2018-12-23T01:08:23.598Z,0.00
2018-12-23T01:09:23.563Z,0.00
2018-12-23T01:10:23.526Z,0.00
2018-12-23T01:11:23.547Z,0.00
2018-12-23T01:12:23.454Z,0.00
2018-12-23T01:13:23.421Z,0.00
2018-12-23T01:14:23.362Z,0.00
2018-12-23T01:15:23.325Z,0.00
2018-12-23T01:16:23.300Z,0.00
2018-12-23T01:17:23.237Z,0.00
2018-12-23T01:18:23.204Z,0.00
2018-12-23T01:19:23.167Z,0.00
2018-12-23T01:20:23.204Z,0.00
2018-12-23T01:21:23.095Z,0.00
2018-12-23T01:22:23.039Z,0.00
2018-12-23T01:23:22.976Z,0.00
2018-12-23T01:24:22.969Z,0.00
2018-12-23T01:25:22.915Z,0.00
2018-12-23T01:26:22.899Z,0.00
2018-12-23T01:27:22.845Z,0.00
2018-12-23T01:28:22.776Z,0.00
2018-12-23T01:29:22.761Z,0.00
2018-12-23T01:30:22.713Z,0.00
2018-12-23T01:31:22.669Z,0.00
2018-12-23T01:32:22.625Z,0.00
2018-12-23T01:33:22.570Z,0.00
2018-12-23T01:34:22.551Z,0.00
2018-12-23T01:35:22.584Z,0.00
2018-12-23T01:36:22.466Z,0.00
2018-12-23T01:37:22.422Z,0.00
2018-12-23T01:38:22.364Z,0.00
2018-12-23T01:39:22.386Z,0.00
2018-12-23T01:40:22.282Z,0.00
2018-12-23T01:41:22.312Z,0.00
2018-12-23T01:42:22.215Z,0.00
2018-12-23T01:43:22.198Z,0.00
2018-12-23T01:44:22.157Z,0.00
2018-12-23T01:45:22.101Z,0.00
2018-12-23T01:46:22.054Z,0.00
2018-12-23T01:47:22.021Z,0.00
2018-12-23T01:48:21.965Z,0.00
2018-12-23T01:49:21.928Z,0.00
2018-12-23T01:50:21.906Z,0.00
2018-12-23T01:51:21.836Z,0.00
2018-12-23T01:52:21.799Z,0.00
2018-12-23T01:53:21.854Z,0.00
2018-12-23T01:54:21.736Z,0.00
2018-12-23T01:55:21.752Z,0.00
2018-12-23T01:56:21.629Z,0.00
2018-12-23T01:57:21.616Z,0.00
2018-12-23T01:58:21.556Z,0.00
2018-12-23T01:59:21.510Z,0.00
2018-12-23T02:00:21.512Z,0.00
2018-12-23T02:01:21.431Z,0.00
2018-12-23T02:02:21.404Z,0.00
2018-12-23T02:03:21.379Z,0.00
2018-12-23T02:04:21.315Z,0.00
2018-12-23T02:05:21.299Z,0.00
2018-12-23T02:06:21.231Z,0.00
2018-12-23T02:07:21.223Z,0.00
2018-12-23T02:08:21.157Z,0.00
2018-12-23T02:09:21.173Z,0.00
2018-12-23T02:10:21.079Z,0.00
2018-12-23T02:11:21.066Z,0.00
2018-12-23T02:12:20.965Z,0.00
2018-12-23T02:13:20.968Z,0.00
2018-12-23T02:14:20.912Z,0.00
2018-12-23T02:15:20.862Z,0.00
2018-12-23T02:16:22.787Z,0.00
2018-12-23T02:17:20.790Z,0.00
2018-12-23T02:18:20.750Z,0.00
2018-12-23T02:19:20.697Z,0.00
2018-12-23T02:20:20.654Z,0.00
2018-12-23T02:21:20.616Z,0.00
2018-12-23T02:22:20.570Z,0.00
2018-12-23T02:23:20.545Z,0.00
2018-12-23T02:24:20.472Z,0.00
2018-12-23T02:25:20.436Z,0.00
2018-12-23T02:26:20.415Z,0.00
2018-12-23T02:27:20.369Z,0.00
2018-12-23T02:28:20.344Z,0.00
2018-12-23T02:29:20.261Z,0.00
2018-12-23T02:30:20.243Z,0.00
2018-12-23T02:31:20.196Z,0.00
2018-12-23T02:32:20.154Z,0.00
2018-12-23T02:33:20.144Z,0.00
2018-12-23T02:34:20.077Z,0.00
2018-12-23T02:35:20.035Z,0.00
2018-12-23T02:36:20.022Z,0.00
2018-12-23T02:37:19.969Z,0.00
2018-12-23T02:38:19.911Z,0.00
2018-12-23T02:39:19.879Z,0.00
2018-12-23T02:40:19.831Z,0.00
2018-12-23T02:41:19.780Z,0.00
2018-12-23T02:42:19.738Z,0.00
2018-12-23T02:43:19.701Z,0.00
2018-12-23T02:44:19.657Z,0.00
2018-12-23T02:45:19.649Z,0.00
2018-12-23T02:46:19.591Z,0.00
2018-12-23T02:47:19.541Z,0.00
2018-12-23T02:48:19.563Z,0.00
2018-12-23T02:49:19.453Z,0.00
2018-12-23T02:50:19.431Z,0.00
2018-12-23T02:51:19.369Z,0.00
2018-12-23T02:52:19.358Z,0.00
2018-12-23T02:53:19.297Z,0.00
2018-12-23T02:54:19.248Z,0.00
2018-12-23T02:55:19.201Z,0.00
2018-12-23T02:56:19.168Z,0.00
2018-12-23T02:57:19.350Z,0.00
2018-12-23T02:58:19.111Z,0.00
2018-12-23T02:59:19.042Z,0.00
2018-12-23T03:00:19.021Z,0.00
2018-12-23T03:01:18.996Z,0.00
2018-12-23T03:02:18.928Z,0.00
2018-12-23T03:03:18.898Z,0.00
2018-12-23T03:04:18.862Z,0.00
2018-12-23T03:05:18.794Z,0.00
2018-12-23T03:06:18.772Z,0.00
2018-12-23T03:07:18.704Z,0.00
2018-12-23T03:08:18.703Z,0.00
2018-12-23T03:09:18.622Z,0.00
2018-12-23T03:10:18.597Z,0.00
2018-12-23T03:11:18.556Z,0.00
2018-12-23T03:12:18.542Z,0.00
2018-12-23T03:13:18.466Z,0.00
2018-12-23T03:14:18.423Z,0.00
2018-12-23T03:15:18.414Z,0.00
2018-12-23T03:16:18.348Z,0.00
2018-12-23T03:17:18.317Z,0.00
2018-12-23T03:18:18.275Z,0.00
2018-12-23T03:19:18.225Z,0.00
2018-12-23T03:20:18.179Z,0.00
2018-12-23T03:21:18.137Z,0.00
2018-12-23T03:22:18.118Z,0.00
2018-12-23T03:23:18.065Z,0.00
2018-12-23T03:24:18.022Z,0.00
2018-12-23T03:25:17.990Z,0.00
2018-12-23T03:26:17.938Z,0.00
2018-12-23T03:27:17.907Z,0.00
2018-12-23T03:28:17.867Z,0.00
2018-12-23T03:29:17.807Z,0.00
2018-12-23T03:30:17.819Z,0.00
2018-12-23T03:31:17.765Z,0.00
2018-12-23T03:32:17.680Z,0.00
2018-12-23T03:33:17.673Z,0.00
2018-12-23T03:34:17.623Z,0.00
2018-12-23T03:35:17.557Z,0.00
2018-12-23T03:36:17.540Z,0.00
2018-12-23T03:37:17.483Z,0.00
2018-12-23T03:38:17.453Z,0.00
2018-12-23T03:39:17.416Z,0.00
2018-12-23T03:40:17.400Z,0.00
2018-12-23T03:41:17.325Z,0.00
2018-12-23T03:42:17.293Z,0.00
2018-12-23T03:43:17.269Z,0.00
2018-12-23T03:44:17.201Z,0.00
2018-12-23T03:45:17.170Z,0.00
2018-12-23T03:46:17.119Z,0.00
2018-12-23T03:47:17.075Z,0.00
2018-12-23T03:48:17.044Z,0.00
2018-12-23T03:49:17.000Z,0.00
2018-12-23T03:50:16.957Z,0.00
2018-12-23T03:51:16.901Z,0.00
2018-12-23T03:52:16.869Z,0.00
2018-12-23T03:53:16.820Z,0.00
2018-12-23T03:54:16.796Z,0.00
2018-12-23T03:55:16.752Z,0.00
2018-12-23T03:56:16.712Z,0.00
2018-12-23T03:57:16.683Z,0.00
2018-12-23T03:58:16.614Z,0.00
2018-12-23T03:59:16.590Z,0.00
2018-12-23T04:00:16.545Z,0.00
2018-12-23T04:01:16.519Z,0.00
2018-12-23T04:02:16.466Z,0.00
2018-12-23T04:03:16.435Z,0.00
2018-12-23T04:04:16.394Z,0.00
2018-12-23T04:05:16.345Z,0.00
2018-12-23T04:06:24.256Z,0.00
2018-12-23T04:07:16.252Z,0.00
2018-12-23T04:08:16.195Z,0.00
2018-12-23T04:09:16.169Z,0.00
2018-12-23T04:10:16.136Z,0.00
2018-12-23T04:11:16.114Z,0.00
2018-12-23T04:12:16.064Z,0.00
2018-12-23T04:13:16.000Z,0.00
2018-12-23T04:14:15.965Z,0.00
2018-12-23T04:15:15.924Z,0.00
2018-12-23T04:16:15.896Z,0.00
2018-12-23T04:17:15.857Z,0.00
2018-12-23T04:18:15.802Z,0.00
2018-12-23T04:19:15.752Z,0.00
2018-12-23T04:20:15.714Z,0.00
2018-12-23T04:21:15.679Z,0.00
2018-12-23T04:22:15.640Z,0.00
2018-12-23T04:23:15.616Z,0.00
2018-12-23T04:24:15.542Z,0.00
2018-12-23T04:25:15.624Z,0.00
2018-12-23T04:26:15.460Z,0.00
2018-12-23T04:27:15.445Z,0.00
2018-12-23T04:28:15.382Z,0.00
2018-12-23T04:29:15.351Z,0.00
2018-12-23T04:30:15.415Z,0.00
2018-12-23T04:31:15.250Z,0.00
2018-12-23T04:32:15.223Z,0.00
2018-12-23T04:33:15.190Z,0.00
2018-12-23T04:34:15.138Z,0.00
2018-12-23T04:35:15.118Z,0.00
2018-12-23T04:36:15.047Z,0.00
2018-12-23T04:37:15.003Z,0.00
2018-12-23T04:38:15.002Z,0.00
2018-12-23T04:39:14.921Z,0.00
2018-12-23T04:40:14.895Z,0.00
2018-12-23T04:41:14.843Z,0.00
2018-12-23T04:42:14.823Z,0.00
2018-12-23T04:43:14.790Z,0.00
2018-12-23T04:44:14.722Z,0.00
2018-12-23T04:45:14.692Z,0.00
2018-12-23T04:46:14.697Z,0.00
2018-12-23T04:47:14.605Z,0.00
2018-12-23T04:48:14.558Z,0.00
2018-12-23T04:49:14.518Z,0.00
2018-12-23T04:50:14.476Z,0.00
2018-12-23T04:51:14.443Z,0.00
2018-12-23T04:52:14.387Z,0.00
2018-12-23T04:53:14.355Z,0.00
2018-12-23T04:54:14.301Z,0.00
2018-12-23T04:55:14.268Z,0.00
2018-12-23T04:56:14.220Z,0.00
2018-12-23T04:57:14.181Z,0.00
2018-12-23T04:58:14.895Z,0.00
2018-12-23T04:59:14.104Z,0.00
2018-12-23T05:00:14.094Z,0.00
2018-12-23T05:01:14.039Z,0.00
2018-12-23T05:02:13.978Z,0.00
2018-12-23T05:03:13.945Z,0.00
2018-12-23T05:04:13.913Z,0.00
2018-12-23T05:05:13.864Z,0.00
2018-12-23T05:06:13.803Z,0.00
2018-12-23T05:07:13.815Z,0.00
2018-12-23T05:08:13.729Z,0.00
2018-12-23T05:09:13.682Z,0.00
2018-12-23T05:10:13.724Z,0.00
2018-12-23T05:11:13.629Z,0.00
2018-12-23T05:12:13.587Z,0.00
2018-12-23T05:13:13.554Z,0.00
2018-12-23T05:14:13.482Z,0.00
2018-12-23T05:15:13.476Z,0.00
2018-12-23T05:16:13.425Z,0.00
2018-12-23T05:17:13.386Z,0.00
2018-12-23T05:18:13.315Z,0.00
2018-12-23T05:19:13.299Z,0.00
2018-12-23T05:20:13.233Z,0.00
2018-12-23T05:21:13.207Z,0.00
2018-12-23T05:22:13.163Z,0.00
2018-12-23T05:23:13.106Z,0.00
2018-12-23T05:24:13.070Z,0.00
2018-12-23T05:25:13.037Z,0.00
2018-12-23T05:26:12.979Z,0.00
2018-12-23T05:27:12.945Z,0.00
2018-12-23T05:28:12.919Z,0.00
2018-12-23T05:29:12.866Z,0.00
2018-12-23T05:30:12.819Z,0.00
2018-12-23T05:31:12.775Z,0.00
2018-12-23T05:32:12.754Z,0.00
2018-12-23T05:33:12.690Z,0.00
2018-12-23T05:34:12.652Z,0.00
2018-12-23T05:35:12.615Z,0.00
2018-12-23T05:36:12.568Z,0.00
2018-12-23T05:37:12.534Z,0.00
2018-12-23T05:38:12.491Z,0.00
2018-12-23T05:39:12.451Z,0.00
2018-12-23T05:40:12.416Z,0.00
2018-12-23T05:41:12.417Z,0.00
2018-12-23T05:42:12.349Z,0.00
2018-12-23T05:43:12.282Z,0.00
2018-12-23T05:44:12.229Z,0.00
2018-12-23T05:45:12.194Z,0.00
2018-12-23T05:46:12.151Z,0.00
2018-12-23T05:47:12.112Z,0.00
2018-12-23T05:48:12.069Z,0.00
2018-12-23T05:49:12.021Z,0.00
2018-12-23T05:50:12.013Z,0.00
2018-12-23T05:51:11.941Z,0.00
2018-12-23T05:52:11.899Z,0.00
2018-12-23T05:53:11.865Z,0.00
2018-12-23T05:54:11.810Z,0.00
2018-12-23T05:55:11.787Z,0.00
2018-12-23T05:56:11.739Z,0.00
2018-12-23T05:57:11.737Z,0.00
2018-12-23T05:58:11.664Z,0.00
2018-12-23T05:59:11.607Z,0.00
2018-12-23T06:00:11.560Z,0.00
2018-12-23T06:01:11.639Z,0.00
2018-12-23T06:02:11.494Z,0.00
2018-12-23T06:03:11.456Z,0.00
2018-12-23T06:04:11.418Z,0.00
2018-12-23T06:05:11.380Z,0.00
2018-12-23T06:06:11.340Z,0.00
2018-12-23T06:07:11.281Z,0.00
2018-12-23T06:08:11.234Z,0.00
2018-12-23T06:09:11.189Z,0.00
2018-12-23T06:10:11.166Z,0.00
2018-12-23T06:11:11.116Z,0.00
2018-12-23T06:12:11.069Z,0.00
2018-12-23T06:13:11.042Z,0.00
2018-12-23T06:14:10.986Z,0.00
2018-12-23T06:15:10.965Z,0.00
2018-12-23T06:16:10.906Z,0.00
2018-12-23T06:17:10.858Z,0.00
2018-12-23T06:18:10.829Z,0.00
2018-12-23T06:19:10.800Z,0.00
2018-12-23T06:20:10.751Z,0.00
2018-12-23T06:21:10.689Z,0.00
2018-12-23T06:22:10.653Z,0.00
2018-12-23T06:23:10.631Z,0.00
2018-12-23T06:24:10.586Z,0.00
2018-12-23T06:25:10.541Z,0.00
2018-12-23T06:26:10.512Z,0.00
2018-12-23T06:27:10.439Z,0.00
2018-12-23T06:28:10.396Z,0.00
2018-12-23T06:29:10.349Z,0.00
2018-12-23T06:30:10.309Z,0.00
2018-12-23T06:31:10.262Z,0.00
2018-12-23T06:32:10.275Z,0.00
2018-12-23T06:33:10.225Z,0.00
2018-12-23T06:34:10.149Z,0.00
2018-12-23T06:35:10.140Z,0.00
2018-12-23T06:36:10.063Z,4.00
2018-12-23T06:37:10.507Z,4.00
2018-12-23T06:38:10.027Z,4.00
2018-12-23T06:39:09.949Z,0.00
2018-12-23T06:40:09.910Z,4.00
2018-12-23T06:41:09.873Z,4.00
2018-12-23T06:42:09.903Z,4.00
2018-12-23T06:43:09.856Z,4.00
2018-12-23T06:44:09.740Z,8.00
2018-12-23T06:45:09.727Z,8.00
2018-12-23T06:46:09.689Z,8.00
2018-12-23T06:47:09.644Z,12.00
2018-12-23T06:48:09.592Z,12.00
2018-12-23T06:49:09.528Z,12.00
2018-12-23T06:50:09.518Z,16.00
2018-12-23T06:51:09.448Z,16.00
2018-12-23T06:52:09.400Z,16.00
2018-12-23T06:53:09.393Z,20.00
2018-12-23T06:54:09.331Z,20.00
2018-12-23T06:55:09.268Z,20.00
2018-12-23T06:56:09.275Z,24.00
2018-12-23T06:57:09.180Z,28.00
2018-12-23T06:58:09.181Z,32.00
2018-12-23T06:59:09.111Z,36.00
2018-12-23T07:00:09.080Z,40.00
2018-12-23T07:01:09.040Z,44.00
2018-12-23T07:02:09.016Z,52.00
2018-12-23T07:03:09.047Z,68.00
2018-12-23T07:04:08.899Z,84.00
2018-12-23T07:05:08.869Z,104.00
2018-12-23T07:06:08.824Z,128.00
2018-12-23T07:07:08.793Z,148.00
2018-12-23T07:08:08.861Z,168.00
2018-12-23T07:09:08.733Z,188.00
2018-12-23T07:10:08.668Z,212.00
2018-12-23T07:11:08.687Z,232.00
2018-12-23T07:12:08.592Z,252.00
2018-12-23T07:13:08.541Z,280.00
2018-12-23T07:14:08.483Z,300.00
2018-12-23T07:15:08.441Z,324.00
2018-12-23T07:16:08.429Z,344.00
2018-12-23T07:17:08.371Z,360.00
2018-12-23T07:18:08.319Z,380.00
2018-12-23T07:19:08.416Z,400.00
2018-12-23T07:20:08.251Z,424.00
2018-12-23T07:21:08.212Z,468.00
2018-12-23T07:22:08.165Z,532.00
2018-12-23T07:23:08.115Z,592.00
2018-12-23T07:24:08.082Z,656.00
2018-12-23T07:25:08.055Z,712.00
2018-12-23T07:26:08.014Z,736.00
2018-12-23T07:27:07.986Z,756.00
2018-12-23T07:28:08.010Z,740.00
2018-12-23T07:29:07.873Z,696.00
2018-12-23T07:30:07.824Z,664.00
2018-12-23T07:31:07.814Z,676.00
2018-12-23T07:32:07.757Z,716.00
2018-12-23T07:33:07.708Z,724.00
2018-12-23T07:34:07.666Z,756.00
2018-12-23T07:35:07.643Z,884.00
2018-12-23T07:36:07.578Z,1020.00
2018-12-23T07:37:07.543Z,1144.00
2018-12-23T07:38:07.500Z,1284.00
2018-12-23T07:39:07.460Z,1412.00
2018-12-23T07:40:07.423Z,1572.00
2018-12-23T07:41:07.397Z,1708.00
2018-12-23T07:42:07.377Z,1804.00
2018-12-23T07:43:07.292Z,1868.00
2018-12-23T07:44:07.275Z,1888.00
2018-12-23T07:45:07.277Z,1888.00
2018-12-23T07:46:07.168Z,1936.00
2018-12-23T07:47:07.153Z,1976.00
2018-12-23T07:48:07.096Z,2112.00
2018-12-23T07:49:07.127Z,2264.00
2018-12-23T07:50:06.999Z,2484.00
2018-12-23T07:51:06.962Z,2624.00
2018-12-23T07:52:06.925Z,2696.00
2018-12-23T07:53:06.877Z,2752.00
2018-12-23T07:54:06.838Z,2676.00
2018-12-23T07:55:06.803Z,2632.00
2018-12-23T07:56:06.757Z,2468.00
2018-12-23T07:57:06.722Z,2392.00
2018-12-23T07:58:06.670Z,2448.00
2018-12-23T07:59:06.622Z,2416.00
2018-12-23T08:00:06.595Z,2336.00
2018-12-23T08:01:06.555Z,2276.00
2018-12-23T08:02:06.507Z,2304.00
2018-12-23T08:03:06.482Z,2424.00
2018-12-23T08:04:06.434Z,2624.00
2018-12-23T08:05:06.375Z,2816.00
2018-12-23T08:06:06.360Z,3024.00
2018-12-23T08:07:06.303Z,3184.00
2018-12-23T08:08:06.274Z,3392.00
2018-12-23T08:09:06.219Z,3632.00
2018-12-23T08:10:06.171Z,3876.00
2018-12-23T08:11:06.134Z,4136.00
2018-12-23T08:12:06.103Z,4372.00
2018-12-23T08:13:06.077Z,4588.00
2018-12-23T08:14:06.008Z,4716.00
2018-12-23T08:15:05.969Z,4776.00
2018-12-23T08:16:05.924Z,4924.00
2018-12-23T08:17:05.884Z,5136.00
2018-12-23T08:18:05.980Z,5308.00
2018-12-23T08:19:05.832Z,5548.00
2018-12-23T08:20:05.761Z,5828.00
2018-12-23T08:21:05.734Z,6064.00
2018-12-23T08:22:05.684Z,6252.00
2018-12-23T08:23:05.637Z,6440.00
2018-12-23T08:24:05.610Z,6592.00
2018-12-23T08:25:05.563Z,6756.00
2018-12-23T08:26:05.511Z,6920.00
2018-12-23T08:27:05.498Z,7120.00
2018-12-23T08:28:05.428Z,7332.00
2018-12-23T08:29:05.389Z,7540.00
2018-12-23T08:30:05.352Z,7720.00
2018-12-23T08:31:05.334Z,7844.00
2018-12-23T08:32:05.291Z,7908.00
2018-12-23T08:33:05.250Z,7940.00
2018-12-23T08:34:05.200Z,7968.00
2018-12-23T08:35:05.167Z,8020.00
2018-12-23T08:36:05.149Z,8076.00
2018-12-23T08:37:05.082Z,8144.00
2018-12-23T08:38:05.037Z,8232.00
2018-12-23T08:39:04.993Z,8344.00
2018-12-23T08:40:04.968Z,8500.00
2018-12-23T08:41:04.930Z,8652.00
2018-12-23T08:42:04.859Z,8812.00
2018-12-23T08:43:04.841Z,8972.00
2018-12-23T08:44:04.798Z,9128.00
2018-12-23T08:45:04.733Z,9288.00
2018-12-23T08:46:04.728Z,9424.00
2018-12-23T08:47:04.664Z,9516.00
2018-12-23T08:48:04.637Z,9560.00
2018-12-23T08:49:04.602Z,9528.00
2018-12-23T08:50:04.563Z,9432.00
2018-12-23T08:51:04.503Z,9352.00
2018-12-23T08:52:04.479Z,9328.00
2018-12-23T08:53:04.444Z,9420.00
2018-12-23T08:54:04.439Z,9576.00
2018-12-23T08:55:04.365Z,9736.00
2018-12-23T08:56:04.300Z,9908.00
2018-12-23T08:57:04.308Z,10092.00
2018-12-23T08:58:04.232Z,10300.00
2018-12-23T08:59:04.218Z,10492.00
2018-12-23T09:00:04.181Z,10644.00
2018-12-23T09:01:04.195Z,10752.00
2018-12-23T09:02:04.044Z,10820.00
2018-12-23T09:03:06.103Z,10852.00
2018-12-23T09:04:03.996Z,10832.00
2018-12-23T09:05:03.938Z,10748.00
2018-12-23T09:06:03.885Z,10612.00
2018-12-23T09:07:03.860Z,10488.00
2018-12-23T09:08:03.813Z,10384.00
2018-12-23T09:09:03.782Z,10240.00
2018-12-23T09:10:03.732Z,10088.00
2018-12-23T09:11:03.707Z,10020.00
2018-12-23T09:12:03.648Z,10076.00
2018-12-23T09:13:03.609Z,10184.00
2018-12-23T09:14:03.629Z,10332.00
2018-12-23T09:15:03.541Z,10404.00
2018-12-23T09:16:03.514Z,10424.00
2018-12-23T09:17:03.474Z,10404.00
2018-12-23T09:18:03.421Z,10304.00
2018-12-23T09:19:03.378Z,10120.00
2018-12-23T09:20:03.337Z,9684.00
2018-12-23T09:21:03.286Z,9168.00
2018-12-23T09:22:03.264Z,8776.00
2018-12-23T09:23:03.218Z,8512.00
2018-12-23T09:24:03.207Z,8480.00
2018-12-23T09:25:03.156Z,8748.00
2018-12-23T09:26:03.091Z,9084.00
2018-12-23T09:27:03.063Z,9296.00
2018-12-23T09:28:03.008Z,9316.00
2018-12-23T09:29:02.973Z,9476.00
2018-12-23T09:30:02.937Z,9552.00
2018-12-23T09:31:02.893Z,9224.00
2018-12-23T09:32:02.859Z,8864.00
2018-12-23T09:33:02.804Z,8924.00
2018-12-23T09:34:02.783Z,9392.00
2018-12-23T09:35:02.744Z,9824.00
2018-12-23T09:36:02.708Z,10296.00
2018-12-23T09:37:02.678Z,10824.00
2018-12-23T09:38:02.636Z,10924.00
2018-12-23T09:39:02.579Z,10940.00
2018-12-23T09:40:02.561Z,10880.00
2018-12-23T09:41:02.489Z,10664.00
2018-12-23T09:42:02.444Z,10412.00
2018-12-23T09:43:02.421Z,10176.00
2018-12-23T09:44:02.378Z,10060.00
2018-12-23T09:45:02.358Z,10392.00
2018-12-23T09:46:02.302Z,11124.00
2018-12-23T09:47:02.261Z,11700.00
2018-12-23T09:48:02.227Z,11764.00
2018-12-23T09:49:02.195Z,11552.00
2018-12-23T09:50:02.160Z,11164.00
2018-12-23T09:51:02.116Z,10808.00
2018-12-23T09:52:02.074Z,10436.00
2018-12-23T09:53:02.037Z,9992.00
2018-12-23T09:54:01.995Z,9776.00
2018-12-23T09:55:01.945Z,9932.00
2018-12-23T09:56:01.922Z,10552.00
2018-12-23T09:57:01.912Z,11396.00
2018-12-23T09:58:01.926Z,11868.00
2018-12-23T09:59:01.787Z,12088.00
2018-12-23T10:00:01.738Z,12280.00
2018-12-23T10:01:01.690Z,12644.00
2018-12-23T10:02:01.658Z,12924.00
2018-12-23T10:03:01.617Z,12888.00
2018-12-23T10:04:01.582Z,12612.00
2018-12-23T10:05:01.536Z,12256.00
2018-12-23T10:06:01.516Z,11712.00
2018-12-23T10:07:01.476Z,10932.00
2018-12-23T10:08:09.805Z,10716.00
2018-12-23T10:09:01.388Z,11072.00
2018-12-23T10:10:01.352Z,11596.00
2018-12-23T10:11:01.309Z,11664.00
2018-12-23T10:12:01.258Z,11408.00
2018-12-23T10:13:01.252Z,11216.00
2018-12-23T10:14:01.201Z,10884.00
2018-12-23T10:15:01.139Z,10044.00
2018-12-23T10:16:01.154Z,8728.00
2018-12-23T10:17:01.086Z,7160.00
2018-12-23T10:18:01.021Z,6180.00
2018-12-23T10:19:00.994Z,6444.00
2018-12-23T10:20:00.944Z,7080.00
2018-12-23T10:21:00.893Z,7972.00
2018-12-23T10:22:00.881Z,8576.00
2018-12-23T10:23:00.822Z,8260.00
2018-12-23T10:24:00.776Z,7404.00
2018-12-23T10:25:00.748Z,8204.00
2018-12-23T10:26:00.707Z,10768.00
2018-12-23T10:27:00.677Z,12192.00
2018-12-23T10:28:00.643Z,11940.00
2018-12-23T10:29:00.598Z,11708.00
2018-12-23T10:30:00.562Z,12532.00
2018-12-23T10:31:00.617Z,13048.00
2018-12-23T10:32:00.468Z,13604.00
2018-12-23T10:33:00.430Z,14108.00
2018-12-23T10:34:00.389Z,14252.00
2018-12-23T10:35:00.344Z,13672.00
2018-12-23T10:36:00.305Z,12004.00
2018-12-23T10:37:00.266Z,9672.00
2018-12-23T10:38:00.255Z,8156.00
2018-12-23T10:39:00.200Z,8072.00
2018-12-23T10:40:00.264Z,8780.00
2018-12-23T10:41:00.126Z,9344.00
2018-12-23T10:42:00.088Z,9072.00
2018-12-23T10:43:01.337Z,9224.00
2018-12-23T10:44:00.007Z,9788.00
2018-12-23T10:44:59.970Z,10696.00
2018-12-23T10:45:59.907Z,11908.00
2018-12-23T10:46:59.871Z,12512.00
2018-12-23T10:47:59.846Z,12336.00
2018-12-23T10:48:59.801Z,11608.00
2018-12-23T10:49:59.774Z,11160.00
2018-12-23T10:50:59.712Z,11320.00
2018-12-23T10:51:59.686Z,11588.00
2018-12-23T10:52:59.635Z,11756.00
2018-12-23T10:53:59.600Z,11900.00
2018-12-23T10:54:59.570Z,12688.00
2018-12-23T10:55:59.547Z,13660.00
2018-12-23T10:56:59.482Z,13968.00
2018-12-23T10:57:59.440Z,13616.00
2018-12-23T10:58:59.424Z,13936.00
2018-12-23T10:59:59.372Z,13900.00
2018-12-23T11:00:59.348Z,14024.00
2018-12-23T11:01:59.298Z,14644.00
2018-12-23T11:02:59.246Z,15696.00
2018-12-23T11:03:59.213Z,15388.00
2018-12-23T11:04:59.158Z,15864.00
2018-12-23T11:05:59.127Z,16700.00
2018-12-23T11:06:59.105Z,17504.00
2018-12-23T11:07:59.051Z,17952.00
2018-12-23T11:08:59.179Z,17952.00
2018-12-23T11:10:02.223Z,19104.00
2018-12-23T11:10:58.967Z,19392.00
2018-12-23T11:11:58.900Z,18176.00
2018-12-23T11:12:58.871Z,20384.00
2018-12-23T11:13:58.802Z,20288.00
2018-12-23T11:14:58.798Z,20768.00
2018-12-23T11:15:58.746Z,21024.00
2018-12-23T11:16:58.688Z,20992.00
2018-12-23T11:17:58.655Z,21088.00
2018-12-23T11:18:58.635Z,20864.00
2018-12-23T11:19:58.574Z,20000.00
2018-12-23T11:20:58.541Z,17792.00
2018-12-23T11:21:58.507Z,16104.00
2018-12-23T11:22:58.471Z,15568.00
2018-12-23T11:23:58.433Z,15152.00
2018-12-23T11:24:58.392Z,14692.00
2018-12-23T11:25:58.386Z,14120.00
2018-12-23T11:26:58.340Z,13524.00
2018-12-23T11:27:58.276Z,13064.00
2018-12-23T11:28:58.276Z,12748.00
2018-12-23T11:29:58.191Z,12620.00
2018-12-23T11:30:58.158Z,12520.00
2018-12-23T11:31:58.130Z,12572.00
2018-12-23T11:32:58.074Z,12792.00
2018-12-23T11:33:58.056Z,13212.00
2018-12-23T11:34:58.000Z,13496.00
2018-12-23T11:35:57.983Z,13752.00
2018-12-23T11:36:57.939Z,14204.00
2018-12-23T11:37:57.899Z,14716.00
2018-12-23T11:38:57.848Z,15024.00
2018-12-23T11:39:57.820Z,15688.00
2018-12-23T11:40:57.786Z,15668.00
2018-12-23T11:41:57.729Z,14428.00
2018-12-23T11:42:57.774Z,13128.00
2018-12-23T11:43:57.667Z,12268.00
2018-12-23T11:44:57.607Z,11596.00
2018-12-23T11:45:57.596Z,11472.00
2018-12-23T11:46:57.537Z,11492.00
2018-12-23T11:47:57.508Z,11144.00
2018-12-23T11:48:57.456Z,10912.00
2018-12-23T11:49:57.431Z,10620.00
2018-12-23T11:50:57.401Z,10572.00
2018-12-23T11:51:57.351Z,10120.00
2018-12-23T11:52:57.304Z,9536.00
2018-12-23T11:53:57.368Z,9212.00
2018-12-23T11:54:57.237Z,9280.00
2018-12-23T11:55:57.202Z,9604.00
2018-12-23T11:56:57.151Z,9480.00
2018-12-23T11:57:57.104Z,10036.00
2018-12-23T11:58:57.060Z,11828.00
2018-12-23T11:59:57.030Z,12532.00
2018-12-23T12:00:57.019Z,11856.00
2018-12-23T12:01:56.947Z,10896.00
2018-12-23T12:02:56.919Z,10244.00
2018-12-23T12:03:56.883Z,9768.00
2018-12-23T12:04:56.867Z,10048.00
2018-12-23T12:05:56.827Z,10292.00
2018-12-23T12:06:56.763Z,9900.00
2018-12-23T12:07:56.717Z,8832.00
2018-12-23T12:08:56.695Z,8544.00
2018-12-23T12:09:56.658Z,9532.00
2018-12-23T12:10:56.631Z,10520.00
2018-12-23T12:11:56.582Z,11220.00
2018-12-23T12:12:56.529Z,11780.00
2018-12-23T12:13:56.486Z,12172.00
2018-12-23T12:14:56.449Z,12288.00
2018-12-23T12:15:56.400Z,12184.00
2018-12-23T12:16:56.388Z,11868.00
2018-12-23T12:17:56.356Z,11536.00
2018-12-23T12:18:56.284Z,11144.00
2018-12-23T12:19:56.237Z,10812.00
2018-12-23T12:20:56.231Z,10792.00
2018-12-23T12:21:56.178Z,10384.00
2018-12-23T12:22:56.171Z,9616.00
2018-12-23T12:23:56.090Z,8580.00
2018-12-23T12:24:56.075Z,7612.00
2018-12-23T12:25:56.014Z,7080.00
2018-12-23T12:26:55.973Z,6972.00
2018-12-23T12:27:55.946Z,7596.00
2018-12-23T12:28:55.918Z,8020.00
2018-12-23T12:29:55.866Z,8380.00
2018-12-23T12:30:55.830Z,8672.00
2018-12-23T12:31:55.775Z,8848.00
2018-12-23T12:32:55.744Z,8804.00
2018-12-23T12:33:55.702Z,8312.00
2018-12-23T12:34:55.649Z,7592.00
2018-12-23T12:35:55.620Z,7140.00
2018-12-23T12:36:55.573Z,6804.00
2018-12-23T12:37:55.571Z,6572.00
2018-12-23T12:38:55.511Z,6472.00
2018-12-23T12:39:55.448Z,5912.00